sensor_id;sensor_type;location;lat;lon;timestamp;P1;durP1;ratioP1;P2;durP2;ratioP2
38972;SDS011;25333;50.762;4.470;2023-07-31T00:00:24;5.72;;;3.03;;
38972;SDS011;25333;50.762;4.470;2023-07-31T00:02:49;8.47;;;3.07;;
38972;SDS011;25333;50.762;4.470;2023-07-31T00:05:17;8.82;;;2.72;;
38972;SDS011;25333;50.762;4.470;2023-07-31T00:07:42;9.60;;;3.55;;
38972;SDS011;25333;50.762;4.470;2023-07-31T00:10:08;9.20;;;3.73;;
38972;SDS011;25333;50.762;4.470;2023-07-31T00:12:34;9.20;;;3.17;;
38972;SDS011;25333;50.762;4.470;2023-07-31T00:15:00;8.27;;;2.88;;
38972;SDS011;25333;50.762;4.470;2023-07-31T00:17:26;9.07;;;3.35;;
38972;SDS011;25333;50.762;4.470;2023-07-31T00:19:51;9.17;;;3.23;;
38972;SDS011;25333;50.762;4.470;2023-07-31T00:22:17;8.57;;;2.87;;
38972;SDS011;25333;50.762;4.470;2023-07-31T00:24:43;8.93;;;3.27;;
38972;SDS011;25333;50.762;4.470;2023-07-31T00:27:08;6.32;;;2.80;;
38972;SDS011;25333;50.762;4.470;2023-07-31T00:29:34;7.97;;;3.08;;
38972;SDS011;25333;50.762;4.470;2023-07-31T00:32:00;10.65;;;3.38;;
38972;SDS011;25333;50.762;4.470;2023-07-31T00:34:26;8.30;;;3.13;;
38972;SDS011;25333;50.762;4.470;2023-07-31T00:36:51;9.10;;;3.00;;
38972;SDS011;25333;50.762;4.470;2023-07-31T00:39:17;7.00;;;3.10;;
38972;SDS011;25333;50.762;4.470;2023-07-31T00:41:42;7.50;;;3.60;;
38972;SDS011;25333;50.762;4.470;2023-07-31T00:44:08;8.10;;;3.33;;
38972;SDS011;25333;50.762;4.470;2023-07-31T00:46:34;7.07;;;3.27;;
38972;SDS011;25333;50.762;4.470;2023-07-31T00:48:59;8.40;;;2.83;;
38972;SDS011;25333;50.762;4.470;2023-07-31T00:51:27;8.07;;;3.25;;
38972;SDS011;25333;50.762;4.470;2023-07-31T00:53:53;8.50;;;3.73;;
38972;SDS011;25333;50.762;4.470;2023-07-31T00:56:22;6.73;;;3.03;;
38972;SDS011;25333;50.762;4.470;2023-07-31T00:58:48;8.80;;;3.10;;
38972;SDS011;25333;50.762;4.470;2023-07-31T01:01:14;7.93;;;2.80;;
38972;SDS011;25333;50.762;4.470;2023-07-31T01:03:40;10.60;;;3.53;;
38972;SDS011;25333;50.762;4.470;2023-07-31T01:06:13;9.23;;;3.10;;
38972;SDS011;25333;50.762;4.470;2023-07-31T01:08:41;7.60;;;2.97;;
38972;SDS011;25333;50.762;4.470;2023-07-31T01:11:28;8.67;;;3.40;;
38972;SDS011;25333;50.762;4.470;2023-07-31T01:13:56;7.40;;;2.77;;
38972;SDS011;25333;50.762;4.470;2023-07-31T01:16:22;17.63;;;3.42;;
38972;SDS011;25333;50.762;4.470;2023-07-31T01:18:50;7.32;;;4.10;;
38972;SDS011;25333;50.762;4.470;2023-07-31T01:21:30;9.63;;;3.20;;
38972;SDS011;25333;50.762;4.470;2023-07-31T01:24:03;7.60;;;2.83;;
38972;SDS011;25333;50.762;4.470;2023-07-31T01:26:36;10.77;;;3.58;;
38972;SDS011;25333;50.762;4.470;2023-07-31T01:29:13;6.23;;;2.90;;
38972;SDS011;25333;50.762;4.470;2023-07-31T01:31:42;12.03;;;3.73;;
38972;SDS011;25333;50.762;4.470;2023-07-31T01:34:13;5.85;;;3.10;;
38972;SDS011;25333;50.762;4.470;2023-07-31T01:36:42;6.65;;;2.80;;
38972;SDS011;25333;50.762;4.470;2023-07-31T01:39:08;8.40;;;3.70;;
38972;SDS011;25333;50.762;4.470;2023-07-31T01:41:34;7.13;;;3.20;;
38972;SDS011;25333;50.762;4.470;2023-07-31T01:44:00;9.03;;;3.00;;
38972;SDS011;25333;50.762;4.470;2023-07-31T01:46:25;7.93;;;2.95;;
38972;SDS011;25333;50.762;4.470;2023-07-31T01:48:51;6.57;;;3.38;;
38972;SDS011;25333;50.762;4.470;2023-07-31T01:51:16;9.52;;;3.50;;
38972;SDS011;25333;50.762;4.470;2023-07-31T01:53:42;7.70;;;2.73;;
38972;SDS011;25333;50.762;4.470;2023-07-31T01:56:08;11.23;;;4.03;;
38972;SDS011;25333;50.762;4.470;2023-07-31T01:58:33;7.33;;;2.63;;
38972;SDS011;25333;50.762;4.470;2023-07-31T02:00:59;9.98;;;2.80;;
38972;SDS011;25333;50.762;4.470;2023-07-31T02:03:25;7.25;;;3.30;;
38972;SDS011;25333;50.762;4.470;2023-07-31T02:05:50;7.88;;;2.70;;
38972;SDS011;25333;50.762;4.470;2023-07-31T02:08:16;4.57;;;3.13;;
38972;SDS011;25333;50.762;4.470;2023-07-31T02:10:42;8.40;;;3.47;;
38972;SDS011;25333;50.762;4.470;2023-07-31T02:13:08;8.07;;;3.10;;
38972;SDS011;25333;50.762;4.470;2023-07-31T02:15:33;5.40;;;3.07;;
38972;SDS011;25333;50.762;4.470;2023-07-31T02:17:59;6.30;;;3.03;;
38972;SDS011;25333;50.762;4.470;2023-07-31T02:20:25;5.43;;;2.63;;
38972;SDS011;25333;50.762;4.470;2023-07-31T02:22:50;6.40;;;3.30;;
38972;SDS011;25333;50.762;4.470;2023-07-31T02:25:16;9.00;;;3.50;;
38972;SDS011;25333;50.762;4.470;2023-07-31T02:27:42;8.57;;;3.17;;
38972;SDS011;25333;50.762;4.470;2023-07-31T02:30:08;6.88;;;3.08;;
38972;SDS011;25333;50.762;4.470;2023-07-31T02:32:34;5.28;;;3.25;;
38972;SDS011;25333;50.762;4.470;2023-07-31T02:34:59;4.63;;;2.33;;
38972;SDS011;25333;50.762;4.470;2023-07-31T02:37:25;7.60;;;2.97;;
38972;SDS011;25333;50.762;4.470;2023-07-31T02:39:51;7.28;;;2.95;;
38972;SDS011;25333;50.762;4.470;2023-07-31T02:42:16;5.10;;;2.67;;
38972;SDS011;25333;50.762;4.470;2023-07-31T02:44:42;7.97;;;2.80;;
38972;SDS011;25333;50.762;4.470;2023-07-31T02:47:08;4.13;;;2.05;;
38972;SDS011;25333;50.762;4.470;2023-07-31T02:49:33;6.03;;;2.72;;
38972;SDS011;25333;50.762;4.470;2023-07-31T02:51:59;5.97;;;2.60;;
38972;SDS011;25333;50.762;4.470;2023-07-31T02:54:25;5.43;;;2.40;;
38972;SDS011;25333;50.762;4.470;2023-07-31T02:56:50;6.90;;;2.30;;
38972;SDS011;25333;50.762;4.470;2023-07-31T02:59:16;5.73;;;2.57;;
38972;SDS011;25333;50.762;4.470;2023-07-31T03:01:42;7.07;;;2.50;;
38972;SDS011;25333;50.762;4.470;2023-07-31T03:04:08;6.57;;;2.55;;
38972;SDS011;25333;50.762;4.470;2023-07-31T03:06:34;5.40;;;2.23;;
38972;SDS011;25333;50.762;4.470;2023-07-31T03:08:59;4.53;;;1.80;;
38972;SDS011;25333;50.762;4.470;2023-07-31T03:11:25;4.80;;;1.70;;
38972;SDS011;25333;50.762;4.470;2023-07-31T03:13:51;5.28;;;2.17;;
38972;SDS011;25333;50.762;4.470;2023-07-31T03:16:17;5.43;;;2.10;;
38972;SDS011;25333;50.762;4.470;2023-07-31T03:18:42;3.57;;;1.90;;
38972;SDS011;25333;50.762;4.470;2023-07-31T03:21:08;5.45;;;2.50;;
38972;SDS011;25333;50.762;4.470;2023-07-31T03:23:34;5.85;;;2.47;;
38972;SDS011;25333;50.762;4.470;2023-07-31T03:26:05;5.32;;;2.63;;
38972;SDS011;25333;50.762;4.470;2023-07-31T03:28:32;5.25;;;2.58;;
38972;SDS011;25333;50.762;4.470;2023-07-31T03:30:57;4.30;;;2.45;;
38972;SDS011;25333;50.762;4.470;2023-07-31T03:33:23;6.20;;;2.90;;
38972;SDS011;25333;50.762;4.470;2023-07-31T03:35:49;5.90;;;2.60;;
38972;SDS011;25333;50.762;4.470;2023-07-31T03:38:14;3.90;;;2.33;;
38972;SDS011;25333;50.762;4.470;2023-07-31T03:40:40;4.80;;;2.03;;
38972;SDS011;25333;50.762;4.470;2023-07-31T03:43:05;3.60;;;1.80;;
38972;SDS011;25333;50.762;4.470;2023-07-31T03:45:31;4.60;;;2.37;;
38972;SDS011;25333;50.762;4.470;2023-07-31T03:47:57;5.78;;;2.00;;
38972;SDS011;25333;50.762;4.470;2023-07-31T03:50:23;4.57;;;2.22;;
38972;SDS011;25333;50.762;4.470;2023-07-31T03:52:50;5.32;;;2.33;;
38972;SDS011;25333;50.762;4.470;2023-07-31T03:55:16;5.97;;;2.80;;
38972;SDS011;25333;50.762;4.470;2023-07-31T03:57:41;4.75;;;2.15;;
38972;SDS011;25333;50.762;4.470;2023-07-31T04:00:07;5.87;;;2.23;;
38972;SDS011;25333;50.762;4.470;2023-07-31T04:02:33;3.88;;;2.25;;
38972;SDS011;25333;50.762;4.470;2023-07-31T04:04:58;5.75;;;2.75;;
38972;SDS011;25333;50.762;4.470;2023-07-31T04:07:24;3.63;;;1.60;;
38972;SDS011;25333;50.762;4.470;2023-07-31T04:09:49;3.80;;;1.80;;
38972;SDS011;25333;50.762;4.470;2023-07-31T04:12:15;7.33;;;2.43;;
38972;SDS011;25333;50.762;4.470;2023-07-31T04:14:41;4.80;;;2.30;;
38972;SDS011;25333;50.762;4.470;2023-07-31T04:17:06;5.03;;;2.23;;
38972;SDS011;25333;50.762;4.470;2023-07-31T04:19:32;5.50;;;2.40;;
38972;SDS011;25333;50.762;4.470;2023-07-31T04:21:57;4.43;;;2.22;;
38972;SDS011;25333;50.762;4.470;2023-07-31T04:24:23;4.70;;;2.35;;
38972;SDS011;25333;50.762;4.470;2023-07-31T04:26:52;5.85;;;2.50;;
38972;SDS011;25333;50.762;4.470;2023-07-31T04:29:19;7.63;;;2.38;;
38972;SDS011;25333;50.762;4.470;2023-07-31T04:31:45;6.82;;;2.35;;
38972;SDS011;25333;50.762;4.470;2023-07-31T04:34:10;3.83;;;2.20;;
38972;SDS011;25333;50.762;4.470;2023-07-31T04:36:39;4.95;;;1.70;;
38972;SDS011;25333;50.762;4.470;2023-07-31T04:39:04;5.23;;;2.50;;
38972;SDS011;25333;50.762;4.470;2023-07-31T04:41:30;3.95;;;1.88;;
38972;SDS011;25333;50.762;4.470;2023-07-31T04:43:56;4.88;;;2.40;;
38972;SDS011;25333;50.762;4.470;2023-07-31T04:46:21;4.43;;;1.60;;
38972;SDS011;25333;50.762;4.470;2023-07-31T04:48:47;4.80;;;2.13;;
38972;SDS011;25333;50.762;4.470;2023-07-31T04:51:12;4.97;;;2.50;;
38972;SDS011;25333;50.762;4.470;2023-07-31T04:53:38;6.28;;;2.17;;
38972;SDS011;25333;50.762;4.470;2023-07-31T04:56:04;3.95;;;1.77;;
38972;SDS011;25333;50.762;4.470;2023-07-31T04:58:29;3.72;;;1.88;;
38972;SDS011;25333;50.762;4.470;2023-07-31T05:00:55;5.60;;;2.00;;
38972;SDS011;25333;50.762;4.470;2023-07-31T05:03:21;3.63;;;1.80;;
38972;SDS011;25333;50.762;4.470;2023-07-31T05:05:46;7.10;;;2.33;;
38972;SDS011;25333;50.762;4.470;2023-07-31T05:08:12;4.93;;;2.15;;
38972;SDS011;25333;50.762;4.470;2023-07-31T05:10:38;7.83;;;2.77;;
38972;SDS011;25333;50.762;4.470;2023-07-31T05:13:04;6.03;;;2.08;;
38972;SDS011;25333;50.762;4.470;2023-07-31T05:15:30;5.75;;;2.08;;
38972;SDS011;25333;50.762;4.470;2023-07-31T05:17:55;4.87;;;1.93;;
38972;SDS011;25333;50.762;4.470;2023-07-31T05:20:21;5.07;;;2.17;;
38972;SDS011;25333;50.762;4.470;2023-07-31T05:22:47;5.30;;;2.35;;
38972;SDS011;25333;50.762;4.470;2023-07-31T05:25:12;4.65;;;2.55;;
38972;SDS011;25333;50.762;4.470;2023-07-31T05:27:38;5.93;;;2.33;;
38972;SDS011;25333;50.762;4.470;2023-07-31T05:30:04;5.07;;;1.90;;
38972;SDS011;25333;50.762;4.470;2023-07-31T05:32:30;4.70;;;1.60;;
38972;SDS011;25333;50.762;4.470;2023-07-31T05:34:56;5.88;;;2.40;;
38972;SDS011;25333;50.762;4.470;2023-07-31T05:37:22;4.45;;;1.85;;
38972;SDS011;25333;50.762;4.470;2023-07-31T05:39:47;5.33;;;2.33;;
38972;SDS011;25333;50.762;4.470;2023-07-31T05:42:13;7.40;;;2.50;;
38972;SDS011;25333;50.762;4.470;2023-07-31T05:44:39;6.03;;;2.22;;
38972;SDS011;25333;50.762;4.470;2023-07-31T05:47:05;6.43;;;2.10;;
38972;SDS011;25333;50.762;4.470;2023-07-31T05:49:30;5.90;;;2.33;;
38972;SDS011;25333;50.762;4.470;2023-07-31T05:51:56;4.97;;;2.15;;
38972;SDS011;25333;50.762;4.470;2023-07-31T05:54:22;4.65;;;2.15;;
38972;SDS011;25333;50.762;4.470;2023-07-31T05:56:47;9.27;;;2.13;;
38972;SDS011;25333;50.762;4.470;2023-07-31T05:59:16;4.60;;;2.63;;
38972;SDS011;25333;50.762;4.470;2023-07-31T06:01:42;5.20;;;2.47;;
38972;SDS011;25333;50.762;4.470;2023-07-31T06:04:07;6.07;;;1.60;;
38972;SDS011;25333;50.762;4.470;2023-07-31T06:06:33;6.93;;;2.70;;
38972;SDS011;25333;50.762;4.470;2023-07-31T06:08:59;5.13;;;2.28;;
38972;SDS011;25333;50.762;4.470;2023-07-31T06:11:25;4.57;;;1.97;;
38972;SDS011;25333;50.762;4.470;2023-07-31T06:13:51;8.25;;;2.58;;
38972;SDS011;25333;50.762;4.470;2023-07-31T06:16:16;5.35;;;2.03;;
38972;SDS011;25333;50.762;4.470;2023-07-31T06:18:42;6.80;;;2.23;;
38972;SDS011;25333;50.762;4.470;2023-07-31T06:21:08;7.40;;;1.88;;
38972;SDS011;25333;50.762;4.470;2023-07-31T06:23:35;4.05;;;1.90;;
38972;SDS011;25333;50.762;4.470;2023-07-31T06:26:01;5.15;;;2.00;;
38972;SDS011;25333;50.762;4.470;2023-07-31T06:28:30;3.70;;;1.80;;
38972;SDS011;25333;50.762;4.470;2023-07-31T06:31:00;5.70;;;2.15;;
38972;SDS011;25333;50.762;4.470;2023-07-31T06:33:28;7.22;;;2.40;;
38972;SDS011;25333;50.762;4.470;2023-07-31T06:35:54;4.63;;;1.88;;
38972;SDS011;25333;50.762;4.470;2023-07-31T06:38:21;6.57;;;1.98;;
38972;SDS011;25333;50.762;4.470;2023-07-31T06:40:49;5.20;;;2.00;;
38972;SDS011;25333;50.762;4.470;2023-07-31T06:43:14;4.77;;;2.00;;
38972;SDS011;25333;50.762;4.470;2023-07-31T06:45:40;6.43;;;2.30;;
38972;SDS011;25333;50.762;4.470;2023-07-31T06:48:05;5.95;;;2.05;;
38972;SDS011;25333;50.762;4.470;2023-07-31T06:50:31;5.30;;;2.13;;
38972;SDS011;25333;50.762;4.470;2023-07-31T06:52:57;4.88;;;2.30;;
38972;SDS011;25333;50.762;4.470;2023-07-31T06:55:24;6.70;;;2.38;;
38972;SDS011;25333;50.762;4.470;2023-07-31T06:57:51;3.83;;;1.40;;
38972;SDS011;25333;50.762;4.470;2023-07-31T07:00:18;5.32;;;1.85;;
38972;SDS011;25333;50.762;4.470;2023-07-31T07:02:47;6.18;;;1.83;;
38972;SDS011;25333;50.762;4.470;2023-07-31T07:05:18;5.35;;;2.03;;
38972;SDS011;25333;50.762;4.470;2023-07-31T07:07:44;5.18;;;2.20;;
38972;SDS011;25333;50.762;4.470;2023-07-31T07:10:10;10.60;;;2.67;;
38972;SDS011;25333;50.762;4.470;2023-07-31T07:12:35;3.50;;;1.60;;
38972;SDS011;25333;50.762;4.470;2023-07-31T07:15:01;4.85;;;1.80;;
38972;SDS011;25333;50.762;4.470;2023-07-31T07:17:28;4.23;;;1.40;;
38972;SDS011;25333;50.762;4.470;2023-07-31T07:19:57;4.23;;;1.63;;
38972;SDS011;25333;50.762;4.470;2023-07-31T07:22:23;4.50;;;2.15;;
38972;SDS011;25333;50.762;4.470;2023-07-31T07:24:49;4.45;;;2.10;;
38972;SDS011;25333;50.762;4.470;2023-07-31T07:27:15;4.67;;;1.63;;
38972;SDS011;25333;50.762;4.470;2023-07-31T07:29:41;5.28;;;1.98;;
38972;SDS011;25333;50.762;4.470;2023-07-31T07:32:06;5.03;;;2.20;;
38972;SDS011;25333;50.762;4.470;2023-07-31T07:34:32;5.70;;;1.77;;
38972;SDS011;25333;50.762;4.470;2023-07-31T07:36:58;6.25;;;2.08;;
38972;SDS011;25333;50.762;4.470;2023-07-31T07:39:24;4.70;;;1.85;;
38972;SDS011;25333;50.762;4.470;2023-07-31T07:41:50;5.90;;;1.75;;
38972;SDS011;25333;50.762;4.470;2023-07-31T07:44:23;5.10;;;1.83;;
38972;SDS011;25333;50.762;4.470;2023-07-31T07:46:48;6.47;;;2.23;;
38972;SDS011;25333;50.762;4.470;2023-07-31T07:49:14;5.57;;;1.90;;
38972;SDS011;25333;50.762;4.470;2023-07-31T07:51:42;4.88;;;1.73;;
38972;SDS011;25333;50.762;4.470;2023-07-31T07:54:08;5.30;;;1.97;;
38972;SDS011;25333;50.762;4.470;2023-07-31T07:56:34;4.93;;;1.67;;
38972;SDS011;25333;50.762;4.470;2023-07-31T07:59:01;4.40;;;1.80;;
38972;SDS011;25333;50.762;4.470;2023-07-31T08:01:27;5.97;;;1.70;;
38972;SDS011;25333;50.762;4.470;2023-07-31T08:04:03;3.50;;;1.63;;
38972;SDS011;25333;50.762;4.470;2023-07-31T08:06:28;4.72;;;1.95;;
38972;SDS011;25333;50.762;4.470;2023-07-31T08:08:55;6.43;;;1.52;;
38972;SDS011;25333;50.762;4.470;2023-07-31T08:11:21;3.80;;;1.63;;
38972;SDS011;25333;50.762;4.470;2023-07-31T08:13:48;5.10;;;1.83;;
38972;SDS011;25333;50.762;4.470;2023-07-31T08:16:14;4.10;;;1.20;;
38972;SDS011;25333;50.762;4.470;2023-07-31T08:18:40;6.05;;;1.55;;
38972;SDS011;25333;50.762;4.470;2023-07-31T08:21:07;3.72;;;2.00;;
38972;SDS011;25333;50.762;4.470;2023-07-31T08:23:35;5.72;;;1.80;;
38972;SDS011;25333;50.762;4.470;2023-07-31T08:26:00;4.90;;;1.47;;
38972;SDS011;25333;50.762;4.470;2023-07-31T08:28:26;4.37;;;1.40;;
38972;SDS011;25333;50.762;4.470;2023-07-31T08:30:52;5.22;;;1.65;;
38972;SDS011;25333;50.762;4.470;2023-07-31T08:33:17;4.38;;;1.40;;
38972;SDS011;25333;50.762;4.470;2023-07-31T08:35:43;5.80;;;1.37;;
38972;SDS011;25333;50.762;4.470;2023-07-31T08:38:09;3.70;;;2.00;;
38972;SDS011;25333;50.762;4.470;2023-07-31T08:40:37;4.88;;;1.92;;
38972;SDS011;25333;50.762;4.470;2023-07-31T08:43:03;4.80;;;1.75;;
38972;SDS011;25333;50.762;4.470;2023-07-31T08:45:29;3.72;;;1.60;;
38972;SDS011;25333;50.762;4.470;2023-07-31T08:47:56;2.17;;;1.35;;
38972;SDS011;25333;50.762;4.470;2023-07-31T08:50:30;4.25;;;1.73;;
38972;SDS011;25333;50.762;4.470;2023-07-31T08:52:56;4.25;;;1.63;;
38972;SDS011;25333;50.762;4.470;2023-07-31T08:55:26;4.82;;;1.52;;
38972;SDS011;25333;50.762;4.470;2023-07-31T08:57:53;4.25;;;1.55;;
38972;SDS011;25333;50.762;4.470;2023-07-31T09:00:20;3.55;;;1.25;;
38972;SDS011;25333;50.762;4.470;2023-07-31T09:02:50;4.97;;;1.95;;
38972;SDS011;25333;50.762;4.470;2023-07-31T09:05:17;2.08;;;1.17;;
38972;SDS011;25333;50.762;4.470;2023-07-31T09:07:45;4.53;;;1.98;;
38972;SDS011;25333;50.762;4.470;2023-07-31T09:10:12;3.58;;;1.30;;
38972;SDS011;25333;50.762;4.470;2023-07-31T09:12:38;4.70;;;2.10;;
38972;SDS011;25333;50.762;4.470;2023-07-31T09:15:04;3.38;;;1.27;;
38972;SDS011;25333;50.762;4.470;2023-07-31T09:17:31;3.20;;;1.35;;
38972;SDS011;25333;50.762;4.470;2023-07-31T09:19:58;4.45;;;1.60;;
38972;SDS011;25333;50.762;4.470;2023-07-31T09:22:37;5.30;;;2.05;;
38972;SDS011;25333;50.762;4.470;2023-07-31T09:25:13;3.70;;;1.75;;
38972;SDS011;25333;50.762;4.470;2023-07-31T09:27:47;5.25;;;2.00;;
38972;SDS011;25333;50.762;4.470;2023-07-31T09:30:24;4.72;;;1.63;;
38972;SDS011;25333;50.762;4.470;2023-07-31T09:32:50;4.85;;;1.85;;
38972;SDS011;25333;50.762;4.470;2023-07-31T09:35:31;4.68;;;2.22;;
38972;SDS011;25333;50.762;4.470;2023-07-31T09:37:58;5.82;;;2.03;;
38972;SDS011;25333;50.762;4.470;2023-07-31T09:40:29;6.30;;;2.45;;
38972;SDS011;25333;50.762;4.470;2023-07-31T09:42:56;5.18;;;1.80;;
38972;SDS011;25333;50.762;4.470;2023-07-31T09:45:23;6.35;;;2.20;;
38972;SDS011;25333;50.762;4.470;2023-07-31T09:47:49;5.85;;;2.65;;
38972;SDS011;25333;50.762;4.470;2023-07-31T09:50:15;4.25;;;2.53;;
38972;SDS011;25333;50.762;4.470;2023-07-31T09:52:41;4.47;;;2.08;;
38972;SDS011;25333;50.762;4.470;2023-07-31T09:55:08;5.03;;;2.33;;
38972;SDS011;25333;50.762;4.470;2023-07-31T09:57:36;5.60;;;2.92;;
38972;SDS011;25333;50.762;4.470;2023-07-31T10:00:05;4.90;;;2.30;;
38972;SDS011;25333;50.762;4.470;2023-07-31T10:02:34;4.70;;;2.30;;
38972;SDS011;25333;50.762;4.470;2023-07-31T10:05:02;7.70;;;2.23;;
38972;SDS011;25333;50.762;4.470;2023-07-31T10:07:28;3.70;;;2.55;;
38972;SDS011;25333;50.762;4.470;2023-07-31T10:09:57;6.35;;;2.75;;
38972;SDS011;25333;50.762;4.470;2023-07-31T10:12:25;6.15;;;2.53;;
38972;SDS011;25333;50.762;4.470;2023-07-31T10:14:54;4.30;;;2.40;;
38972;SDS011;25333;50.762;4.470;2023-07-31T10:17:20;6.87;;;2.60;;
38972;SDS011;25333;50.762;4.470;2023-07-31T10:19:47;7.32;;;3.28;;
38972;SDS011;25333;50.762;4.470;2023-07-31T10:22:14;5.03;;;2.90;;
38972;SDS011;25333;50.762;4.470;2023-07-31T10:24:40;10.60;;;3.63;;
38972;SDS011;25333;50.762;4.470;2023-07-31T10:27:08;7.20;;;3.47;;
38972;SDS011;25333;50.762;4.470;2023-07-31T10:29:35;10.65;;;3.90;;
38972;SDS011;25333;50.762;4.470;2023-07-31T10:32:03;7.13;;;3.33;;
38972;SDS011;25333;50.762;4.470;2023-07-31T10:34:33;7.07;;;3.58;;
38972;SDS011;25333;50.762;4.470;2023-07-31T10:42:30;6.30;;;3.33;;
38972;SDS011;25333;50.762;4.470;2023-07-31T10:45:02;7.35;;;3.00;;
38972;SDS011;25333;50.762;4.470;2023-07-31T10:47:44;6.90;;;3.10;;
38972;SDS011;25333;50.762;4.470;2023-07-31T10:50:16;6.50;;;2.85;;
38972;SDS011;25333;50.762;4.470;2023-07-31T10:52:44;7.00;;;3.90;;
38972;SDS011;25333;50.762;4.470;2023-07-31T10:57:44;7.55;;;3.03;;
38972;SDS011;25333;50.762;4.470;2023-07-31T11:00:22;6.53;;;3.15;;
38972;SDS011;25333;50.762;4.470;2023-07-31T11:02:58;7.70;;;3.20;;
38972;SDS011;25333;50.762;4.470;2023-07-31T11:08:25;7.30;;;3.30;;
38972;SDS011;25333;50.762;4.470;2023-07-31T11:13:26;6.20;;;2.65;;
38972;SDS011;25333;50.762;4.470;2023-07-31T11:15:59;9.57;;;2.88;;
38972;SDS011;25333;50.762;4.470;2023-07-31T11:18:26;6.03;;;2.47;;
38972;SDS011;25333;50.762;4.470;2023-07-31T11:20:52;9.45;;;3.47;;
38972;SDS011;25333;50.762;4.470;2023-07-31T11:23:19;6.30;;;3.13;;
38972;SDS011;25333;50.762;4.470;2023-07-31T11:25:45;6.82;;;2.78;;
38972;SDS011;25333;50.762;4.470;2023-07-31T11:28:13;6.70;;;3.00;;
38972;SDS011;25333;50.762;4.470;2023-07-31T11:30:40;7.10;;;3.00;;
38972;SDS011;25333;50.762;4.470;2023-07-31T11:33:08;4.97;;;2.30;;
38972;SDS011;25333;50.762;4.470;2023-07-31T11:35:35;7.00;;;2.78;;
38972;SDS011;25333;50.762;4.470;2023-07-31T11:38:07;7.65;;;3.15;;
38972;SDS011;25333;50.762;4.470;2023-07-31T11:40:40;7.97;;;2.38;;
38972;SDS011;25333;50.762;4.470;2023-07-31T11:43:07;5.90;;;2.95;;
38972;SDS011;25333;50.762;4.470;2023-07-31T11:45:32;8.07;;;3.00;;
38972;SDS011;25333;50.762;4.470;2023-07-31T11:48:00;5.23;;;2.60;;
38972;SDS011;25333;50.762;4.470;2023-07-31T11:50:26;5.70;;;2.50;;
38972;SDS011;25333;50.762;4.470;2023-07-31T11:52:59;6.32;;;2.47;;
38972;SDS011;25333;50.762;4.470;2023-07-31T11:55:27;7.10;;;2.70;;
38972;SDS011;25333;50.762;4.470;2023-07-31T11:57:54;5.05;;;2.40;;
38972;SDS011;25333;50.762;4.470;2023-07-31T12:00:22;7.65;;;2.45;;
38972;SDS011;25333;50.762;4.470;2023-07-31T12:02:48;8.70;;;3.50;;
38972;SDS011;25333;50.762;4.470;2023-07-31T12:05:15;5.07;;;2.47;;
38972;SDS011;25333;50.762;4.470;2023-07-31T12:07:45;5.90;;;2.92;;
38972;SDS011;25333;50.762;4.470;2023-07-31T12:10:25;6.23;;;2.40;;
38972;SDS011;25333;50.762;4.470;2023-07-31T12:12:58;6.45;;;2.88;;
38972;SDS011;25333;50.762;4.470;2023-07-31T12:15:37;6.30;;;2.90;;
38972;SDS011;25333;50.762;4.470;2023-07-31T12:18:07;6.05;;;3.03;;
38972;SDS011;25333;50.762;4.470;2023-07-31T12:20:34;7.20;;;2.95;;
38972;SDS011;25333;50.762;4.470;2023-07-31T12:23:01;5.28;;;2.80;;
38972;SDS011;25333;50.762;4.470;2023-07-31T12:25:32;5.03;;;2.35;;
38972;SDS011;25333;50.762;4.470;2023-07-31T12:28:03;6.45;;;2.75;;
38972;SDS011;25333;50.762;4.470;2023-07-31T12:30:32;6.97;;;2.78;;
38972;SDS011;25333;50.762;4.470;2023-07-31T12:33:03;5.85;;;2.75;;
38972;SDS011;25333;50.762;4.470;2023-07-31T12:35:34;6.75;;;3.13;;
38972;SDS011;25333;50.762;4.470;2023-07-31T12:38:05;7.07;;;2.93;;
38972;SDS011;25333;50.762;4.470;2023-07-31T12:40:30;7.25;;;2.97;;
38972;SDS011;25333;50.762;4.470;2023-07-31T12:42:56;6.70;;;3.33;;
38972;SDS011;25333;50.762;4.470;2023-07-31T12:45:22;5.68;;;2.20;;
38972;SDS011;25333;50.762;4.470;2023-07-31T12:47:48;6.07;;;3.23;;
38972;SDS011;25333;50.762;4.470;2023-07-31T12:50:19;8.50;;;3.22;;
38972;SDS011;25333;50.762;4.470;2023-07-31T12:52:45;6.85;;;3.00;;
38972;SDS011;25333;50.762;4.470;2023-07-31T12:55:10;6.00;;;3.33;;
38972;SDS011;25333;50.762;4.470;2023-07-31T12:57:36;8.48;;;3.22;;
38972;SDS011;25333;50.762;4.470;2023-07-31T13:00:03;7.30;;;3.20;;
38972;SDS011;25333;50.762;4.470;2023-07-31T13:02:30;8.38;;;3.35;;
38972;SDS011;25333;50.762;4.470;2023-07-31T13:04:55;7.07;;;2.83;;
38972;SDS011;25333;50.762;4.470;2023-07-31T13:07:21;8.27;;;3.17;;
38972;SDS011;25333;50.762;4.470;2023-07-31T13:09:48;8.82;;;3.50;;
38972;SDS011;25333;50.762;4.470;2023-07-31T13:12:13;7.73;;;3.10;;
38972;SDS011;25333;50.762;4.470;2023-07-31T13:14:39;9.38;;;4.05;;
38972;SDS011;25333;50.762;4.470;2023-07-31T13:17:05;6.75;;;2.88;;
38972;SDS011;25333;50.762;4.470;2023-07-31T13:19:31;6.83;;;3.47;;
38972;SDS011;25333;50.762;4.470;2023-07-31T13:21:56;7.67;;;2.87;;
38972;SDS011;25333;50.762;4.470;2023-07-31T13:24:22;6.72;;;3.00;;
38972;SDS011;25333;50.762;4.470;2023-07-31T13:26:48;5.60;;;2.60;;
38972;SDS011;25333;50.762;4.470;2023-07-31T13:29:13;5.72;;;2.38;;
38972;SDS011;25333;50.762;4.470;2023-07-31T13:31:39;7.35;;;2.67;;
38972;SDS011;25333;50.762;4.470;2023-07-31T13:34:05;5.43;;;2.05;;
38972;SDS011;25333;50.762;4.470;2023-07-31T13:36:30;5.67;;;1.73;;
38972;SDS011;25333;50.762;4.470;2023-07-31T13:38:56;3.43;;;1.60;;
38972;SDS011;25333;50.762;4.470;2023-07-31T13:41:25;5.03;;;1.88;;
38972;SDS011;25333;50.762;4.470;2023-07-31T13:43:51;3.50;;;1.60;;
38972;SDS011;25333;50.762;4.470;2023-07-31T13:46:20;5.40;;;1.85;;
38972;SDS011;25333;50.762;4.470;2023-07-31T13:49:09;5.05;;;1.77;;
38972;SDS011;25333;50.762;4.470;2023-07-31T13:51:38;4.95;;;1.52;;
38972;SDS011;25333;50.762;4.470;2023-07-31T13:54:04;3.33;;;1.08;;
38972;SDS011;25333;50.762;4.470;2023-07-31T13:56:39;5.70;;;1.83;;
38972;SDS011;25333;50.762;4.470;2023-07-31T13:59:15;4.68;;;1.98;;
38972;SDS011;25333;50.762;4.470;2023-07-31T14:01:48;4.68;;;2.08;;
38972;SDS011;25333;50.762;4.470;2023-07-31T14:04:19;3.45;;;1.92;;
38972;SDS011;25333;50.762;4.470;2023-07-31T14:06:59;4.90;;;1.65;;
38972;SDS011;25333;50.762;4.470;2023-07-31T14:09:26;3.72;;;1.88;;
38972;SDS011;25333;50.762;4.470;2023-07-31T14:12:06;4.13;;;1.60;;
38972;SDS011;25333;50.762;4.470;2023-07-31T14:14:46;4.57;;;1.60;;
38972;SDS011;25333;50.762;4.470;2023-07-31T14:17:12;3.67;;;1.37;;
38972;SDS011;25333;50.762;4.470;2023-07-31T14:19:45;4.72;;;2.03;;
38972;SDS011;25333;50.762;4.470;2023-07-31T14:22:36;4.63;;;1.80;;
38972;SDS011;25333;50.762;4.470;2023-07-31T14:25:27;4.33;;;1.50;;
38972;SDS011;25333;50.762;4.470;2023-07-31T14:28:02;3.80;;;1.63;;
38972;SDS011;25333;50.762;4.470;2023-07-31T14:30:43;5.38;;;2.55;;
38972;SDS011;25333;50.762;4.470;2023-07-31T14:33:36;3.40;;;1.77;;
38972;SDS011;25333;50.762;4.470;2023-07-31T14:36:15;4.45;;;2.17;;
38972;SDS011;25333;50.762;4.470;2023-07-31T14:38:49;3.03;;;1.27;;
38972;SDS011;25333;50.762;4.470;2023-07-31T14:41:28;2.85;;;1.50;;
38972;SDS011;25333;50.762;4.470;2023-07-31T14:44:22;2.60;;;1.40;;
38972;SDS011;25333;50.762;4.470;2023-07-31T14:46:58;2.40;;;1.02;;
38972;SDS011;25333;50.762;4.470;2023-07-31T14:49:33;3.20;;;1.23;;
38972;SDS011;25333;50.762;4.470;2023-07-31T14:51:58;2.78;;;1.48;;
38972;SDS011;25333;50.762;4.470;2023-07-31T14:54:55;3.00;;;1.15;;
38972;SDS011;25333;50.762;4.470;2023-07-31T14:58:16;2.83;;;1.00;;
38972;SDS011;25333;50.762;4.470;2023-07-31T15:01:17;3.55;;;0.75;;
38972;SDS011;25333;50.762;4.470;2023-07-31T15:03:45;3.15;;;0.82;;
38972;SDS011;25333;50.762;4.470;2023-07-31T15:07:01;1.92;;;0.80;;